createdAt,value
2019-02-24T00:01:23.453Z,20.02
2019-02-24T00:03:50.839Z,20.00
2019-02-24T00:06:18.318Z,19.27
2019-02-24T00:08:45.754Z,19.15
2019-02-24T00:11:13.200Z,20.35
2019-02-24T00:13:40.614Z,17.02
2019-02-24T00:16:07.961Z,16.90
2019-02-24T00:18:35.350Z,18.07
2019-02-24T00:21:02.816Z,19.67
2019-02-24T00:23:30.167Z,16.82
2019-02-24T00:25:57.591Z,17.50
2019-02-24T00:28:24.976Z,22.85
2019-02-24T00:30:52.415Z,18.45
2019-02-24T00:33:19.763Z,20.23
2019-02-24T00:35:47.181Z,16.73
2019-02-24T00:38:14.837Z,16.65
2019-02-24T00:40:42.418Z,17.70
2019-02-24T00:43:09.929Z,18.65
2019-02-24T00:45:37.352Z,15.75
2019-02-24T00:48:04.744Z,20.10
2019-02-24T00:50:32.142Z,22.85
2019-02-24T00:52:59.498Z,18.85
2019-02-24T00:55:26.915Z,17.57
2019-02-24T00:57:54.266Z,17.40
2019-02-24T01:00:21.789Z,17.52
2019-02-24T01:02:49.183Z,14.68
2019-02-24T01:05:16.583Z,18.07
2019-02-24T01:07:44.856Z,15.15
2019-02-24T01:10:12.386Z,18.95
2019-02-24T01:12:39.765Z,18.87
2019-02-24T01:15:07.561Z,16.02
2019-02-24T01:17:34.930Z,16.50
2019-02-24T01:20:02.354Z,14.68
2019-02-24T01:22:30.930Z,17.62
2019-02-24T01:24:58.318Z,13.10
2019-02-24T01:27:25.683Z,13.83
2019-02-24T01:29:52.960Z,13.38
2019-02-24T01:32:20.360Z,17.17
2019-02-24T01:34:47.622Z,11.93
2019-02-24T01:37:15.096Z,11.33
2019-02-24T01:39:42.446Z,12.73
2019-02-24T01:42:09.819Z,12.30
2019-02-24T01:44:37.216Z,14.75
2019-02-24T01:47:04.619Z,14.65
2019-02-24T01:49:31.968Z,10.23
2019-02-24T01:51:59.369Z,12.82
2019-02-24T01:54:26.728Z,11.30
2019-02-24T01:56:54.096Z,10.93
2019-02-24T01:59:21.497Z,12.82
2019-02-24T02:01:48.883Z,14.03
2019-02-24T02:04:16.278Z,10.58
2019-02-24T02:06:43.671Z,11.55
2019-02-24T02:09:11.059Z,14.40
2019-02-24T02:11:38.561Z,12.35
2019-02-24T02:14:05.944Z,12.20
2019-02-24T02:16:34.315Z,11.93
2019-02-24T02:19:01.755Z,12.23
2019-02-24T02:21:29.193Z,14.58
2019-02-24T02:23:57.668Z,12.60
2019-02-24T02:26:25.014Z,11.75
2019-02-24T02:28:52.375Z,12.13
2019-02-24T02:31:19.794Z,16.00
2019-02-24T02:33:47.223Z,18.17
2019-02-24T02:36:14.595Z,14.98
2019-02-24T02:38:42.060Z,10.30
2019-02-24T02:41:09.399Z,14.13
2019-02-24T02:43:36.723Z,13.43
2019-02-24T02:46:04.207Z,13.18
2019-02-24T02:48:31.526Z,11.57
2019-02-24T02:50:58.891Z,11.80
2019-02-24T02:53:26.202Z,11.57
2019-02-24T02:55:53.608Z,11.93
2019-02-24T02:58:21.001Z,14.73
2019-02-24T03:00:48.349Z,10.82
2019-02-24T03:03:15.835Z,12.70
2019-02-24T03:05:53.498Z,11.53
2019-02-24T03:08:22.697Z,13.68
2019-02-24T03:10:50.120Z,12.15
2019-02-24T03:13:17.545Z,12.55
2019-02-24T03:15:44.939Z,13.08
2019-02-24T03:18:12.283Z,10.40
2019-02-24T03:20:39.482Z,11.38
2019-02-24T03:23:06.916Z,14.55
2019-02-24T03:25:34.392Z,14.00
2019-02-24T03:28:01.637Z,11.80
2019-02-24T03:30:29.047Z,11.60
2019-02-24T03:32:56.377Z,14.55
2019-02-24T03:35:23.773Z,11.00
2019-02-24T03:37:51.165Z,13.10
2019-02-24T03:40:18.594Z,13.80
2019-02-24T03:42:46.028Z,13.45
2019-02-24T03:45:13.281Z,11.83
2019-02-24T03:47:40.722Z,11.20
2019-02-24T03:50:09.287Z,10.98
2019-02-24T03:52:36.713Z,9.45
2019-02-24T03:55:04.114Z,12.03
2019-02-24T03:57:31.481Z,11.12
2019-02-24T03:59:59.165Z,12.45
2019-02-24T04:02:26.703Z,12.10
2019-02-24T04:04:54.208Z,12.80
2019-02-24T04:07:21.643Z,11.35
2019-02-24T04:09:49.169Z,12.05
2019-02-24T04:12:16.549Z,10.88
2019-02-24T04:14:43.918Z,11.63
2019-02-24T04:17:12.238Z,10.63
2019-02-24T04:19:39.626Z,10.63
2019-02-24T04:22:06.967Z,13.18
2019-02-24T04:24:34.310Z,13.83
2019-02-24T04:27:01.675Z,11.55
2019-02-24T04:29:29.073Z,14.13
2019-02-24T04:31:56.507Z,11.88
2019-02-24T04:34:23.929Z,13.93
2019-02-24T04:36:51.362Z,12.20
2019-02-24T04:39:18.780Z,12.23
2019-02-24T04:41:46.138Z,11.20
2019-02-24T04:44:13.553Z,11.75
2019-02-24T04:46:40.917Z,11.85
2019-02-24T04:49:08.189Z,11.88
2019-02-24T04:51:35.606Z,10.90
2019-02-24T04:54:03.092Z,11.78
2019-02-24T04:56:30.437Z,13.13
2019-02-24T04:58:57.866Z,10.20
2019-02-24T05:01:25.117Z,12.55
2019-02-24T05:03:52.605Z,10.63
2019-02-24T05:06:19.934Z,11.80
2019-02-24T05:08:47.220Z,12.30
2019-02-24T05:11:14.642Z,11.68
2019-02-24T05:13:41.979Z,14.68
2019-02-24T05:16:09.351Z,11.60
2019-02-24T05:18:36.751Z,11.45
2019-02-24T05:21:04.231Z,12.30
2019-02-24T05:23:32.895Z,12.05
2019-02-24T05:26:00.260Z,10.03
2019-02-24T05:28:27.773Z,10.98
2019-02-24T05:30:55.105Z,12.53
2019-02-24T05:33:22.430Z,11.43
2019-02-24T05:35:49.850Z,9.25
2019-02-24T05:38:17.198Z,12.82
2019-02-24T05:40:44.546Z,8.73
2019-02-24T05:43:11.914Z,10.65
2019-02-24T05:45:39.285Z,10.70
2019-02-24T05:48:06.630Z,10.63
2019-02-24T05:50:33.912Z,12.30
2019-02-24T05:53:01.234Z,12.63
2019-02-24T05:55:28.567Z,11.63
2019-02-24T05:57:55.989Z,11.30
2019-02-24T06:00:23.423Z,10.72
2019-02-24T06:02:50.826Z,9.63
2019-02-24T06:05:18.246Z,11.30
2019-02-24T06:07:45.733Z,15.05
2019-02-24T06:10:13.092Z,9.25
2019-02-24T06:12:40.526Z,10.68
2019-02-24T06:15:07.846Z,12.13
2019-02-24T06:17:35.140Z,9.53
2019-02-24T06:20:02.661Z,10.15
2019-02-24T06:22:30.204Z,11.73
2019-02-24T06:24:57.594Z,10.72
2019-02-24T06:27:24.999Z,10.82
2019-02-24T06:29:52.415Z,11.05
2019-02-24T06:32:19.820Z,10.15
2019-02-24T06:34:47.291Z,10.05
2019-02-24T06:37:15.802Z,8.30
2019-02-24T06:39:43.233Z,9.95
2019-02-24T06:42:10.685Z,10.08
2019-02-24T06:44:38.076Z,10.88
2019-02-24T06:47:05.489Z,8.53
2019-02-24T06:49:33.065Z,9.93
2019-02-24T06:52:01.414Z,8.03
2019-02-24T06:54:28.755Z,10.03
2019-02-24T06:56:56.137Z,9.60
2019-02-24T06:59:23.738Z,10.20
2019-02-24T07:01:51.186Z,11.43
2019-02-24T07:04:18.634Z,8.75
2019-02-24T07:06:46.116Z,10.35
2019-02-24T07:09:13.353Z,9.73
2019-02-24T07:11:40.831Z,8.83
2019-02-24T07:14:08.245Z,9.48
2019-02-24T07:16:35.712Z,10.65
2019-02-24T07:19:03.127Z,9.20
2019-02-24T07:21:30.586Z,10.53
2019-02-24T07:23:58.029Z,9.33
2019-02-24T07:26:25.498Z,8.75
2019-02-24T07:28:53.940Z,9.40
2019-02-24T07:31:21.365Z,9.20
2019-02-24T07:33:48.702Z,9.88
2019-02-24T07:36:16.202Z,8.75
2019-02-24T07:38:43.715Z,9.33
2019-02-24T07:41:11.111Z,9.83
2019-02-24T07:43:38.493Z,10.03
2019-02-24T07:46:06.241Z,8.43
2019-02-24T07:48:33.701Z,8.78
2019-02-24T07:51:00.982Z,10.03
2019-02-24T07:53:28.413Z,9.60
2019-02-24T07:55:55.839Z,9.35
2019-02-24T07:58:23.245Z,11.63
2019-02-24T08:00:50.689Z,7.67
2019-02-24T08:03:17.961Z,7.25
2019-02-24T08:05:45.441Z,10.70
2019-02-24T08:08:16.468Z,9.63
2019-02-24T08:10:42.283Z,8.35
2019-02-24T08:13:09.748Z,8.03
2019-02-24T08:15:37.276Z,8.18
2019-02-24T08:18:04.749Z,8.05
2019-02-24T08:20:33.427Z,7.50
2019-02-24T08:23:01.050Z,9.63
2019-02-24T08:25:28.434Z,7.80
2019-02-24T08:27:55.972Z,8.45
2019-02-24T08:30:23.316Z,7.72
2019-02-24T08:32:50.751Z,8.80
2019-02-24T08:35:18.156Z,9.10
2019-02-24T08:37:45.548Z,7.87
2019-02-24T08:40:12.967Z,9.40
2019-02-24T08:42:40.412Z,8.35
2019-02-24T08:45:08.056Z,7.42
2019-02-24T08:47:35.486Z,8.65
2019-02-24T08:50:03.538Z,8.38
2019-02-24T08:52:31.007Z,7.50
2019-02-24T08:54:58.568Z,7.25
2019-02-24T08:57:25.919Z,7.40
2019-02-24T08:59:53.431Z,9.38
2019-02-24T09:02:20.809Z,9.18
2019-02-24T09:04:48.318Z,7.40
2019-02-24T09:07:16.018Z,7.67
2019-02-24T09:09:43.410Z,8.25
2019-02-24T09:12:10.833Z,8.30
2019-02-24T09:14:38.742Z,8.83
2019-02-24T09:17:06.114Z,7.72
2019-02-24T09:19:33.539Z,7.50
2019-02-24T09:22:00.925Z,10.60
2019-02-24T09:24:29.482Z,9.73
2019-02-24T09:26:56.891Z,8.48
2019-02-24T09:29:24.252Z,8.43
2019-02-24T09:31:51.758Z,9.33
2019-02-24T09:34:19.315Z,10.18
2019-02-24T09:36:46.673Z,10.28
2019-02-24T09:39:14.049Z,9.93
2019-02-24T09:41:41.762Z,9.03
2019-02-24T09:44:09.097Z,10.30
2019-02-24T09:46:37.517Z,11.00
2019-02-24T09:49:04.935Z,9.70
2019-02-24T09:51:32.338Z,7.35
2019-02-24T09:53:59.744Z,8.58
2019-02-24T09:56:27.387Z,8.28
2019-02-24T09:58:54.747Z,9.23
2019-02-24T10:01:22.194Z,8.95
2019-02-24T10:03:49.769Z,27.87
2019-02-24T10:06:17.135Z,11.35
2019-02-24T10:08:44.510Z,19.35
2019-02-24T10:11:13.301Z,12.70
2019-02-24T10:13:40.779Z,9.58
2019-02-24T10:16:08.134Z,7.72
2019-02-24T10:18:35.529Z,7.00
2019-02-24T10:21:03.086Z,7.08
2019-02-24T10:23:30.329Z,7.95
2019-02-24T10:25:57.724Z,7.33
2019-02-24T10:28:25.095Z,8.45
2019-02-24T10:30:52.589Z,10.03
2019-02-24T10:33:19.978Z,9.53
2019-02-24T10:35:47.447Z,9.00
2019-02-24T10:38:14.979Z,9.63
2019-02-24T10:40:42.369Z,7.80
2019-02-24T10:43:09.745Z,8.43
2019-02-24T10:45:37.103Z,10.70
2019-02-24T10:48:13.534Z,7.40
2019-02-24T10:50:33.773Z,8.78
2019-02-24T10:53:01.192Z,9.93
2019-02-24T10:55:28.593Z,8.70
2019-02-24T10:57:56.562Z,6.95
2019-02-24T11:00:23.882Z,9.10
2019-02-24T11:02:51.384Z,9.33
2019-02-24T11:05:18.788Z,6.90
2019-02-24T11:07:46.266Z,8.88
2019-02-24T11:10:14.694Z,8.93
2019-02-24T11:12:42.061Z,7.67
2019-02-24T11:15:09.817Z,7.42
2019-02-24T11:17:37.220Z,7.70
2019-02-24T11:20:05.764Z,8.90
2019-02-24T11:22:34.230Z,10.43
2019-02-24T11:25:01.629Z,8.08
2019-02-24T11:27:29.178Z,8.73
2019-02-24T11:29:56.601Z,7.78
2019-02-24T11:32:23.996Z,7.62
2019-02-24T11:34:51.375Z,7.45
2019-02-24T11:37:18.811Z,7.70
2019-02-24T11:39:46.097Z,7.72
2019-02-24T11:42:14.564Z,6.62
2019-02-24T11:44:41.934Z,8.80
2019-02-24T11:47:09.282Z,6.50
2019-02-24T11:49:36.644Z,6.92
2019-02-24T11:52:05.063Z,8.90
2019-02-24T11:54:32.503Z,7.92
2019-02-24T11:56:59.891Z,6.12
2019-02-24T11:59:27.344Z,7.47
2019-02-24T12:01:54.713Z,6.65
2019-02-24T12:04:22.046Z,7.00
2019-02-24T12:06:49.481Z,6.83
2019-02-24T12:09:16.856Z,6.65
2019-02-24T12:11:44.219Z,6.60
2019-02-24T12:14:11.608Z,6.08
2019-02-24T12:16:39.060Z,6.03
2019-02-24T12:19:06.500Z,6.25
2019-02-24T12:21:34.099Z,8.13
2019-02-24T12:24:01.518Z,6.33
2019-02-24T12:26:28.966Z,6.58
2019-02-24T12:28:56.557Z,7.08
2019-02-24T12:31:24.004Z,5.42
2019-02-24T12:33:51.363Z,5.17
2019-02-24T12:36:18.761Z,5.33
2019-02-24T12:38:46.123Z,5.92
2019-02-24T12:41:15.342Z,5.67
2019-02-24T12:43:42.832Z,5.12
2019-02-24T12:46:10.238Z,5.47
2019-02-24T12:48:37.731Z,7.05
2019-02-24T12:51:05.253Z,6.62
2019-02-24T12:53:33.786Z,5.60
2019-02-24T12:56:01.169Z,5.92
2019-02-24T12:58:28.523Z,5.22
2019-02-24T13:00:55.913Z,5.42
2019-02-24T13:03:24.211Z,6.22
2019-02-24T13:05:51.747Z,6.55
2019-02-24T13:08:19.176Z,5.35
2019-02-24T13:10:46.618Z,8.43
2019-02-24T13:13:14.008Z,7.33
2019-02-24T13:15:41.526Z,8.18
2019-02-24T13:18:08.880Z,7.78
2019-02-24T13:20:36.369Z,7.00
2019-02-24T13:23:03.840Z,6.95
2019-02-24T13:25:32.185Z,7.33
2019-02-24T13:27:59.567Z,6.95
2019-02-24T13:30:26.928Z,18.07
2019-02-24T13:32:54.422Z,5.60
2019-02-24T13:35:21.890Z,7.12
2019-02-24T13:37:49.236Z,6.80
2019-02-24T13:40:16.653Z,6.00
2019-02-24T13:42:44.044Z,6.45
2019-02-24T13:45:12.347Z,11.35
2019-02-24T13:47:39.834Z,7.47
2019-02-24T13:50:08.471Z,5.90
2019-02-24T13:52:35.862Z,6.60
2019-02-24T13:55:03.825Z,5.75
2019-02-24T13:57:31.247Z,5.22
2019-02-24T13:59:58.766Z,6.65
2019-02-24T14:02:27.292Z,6.75
2019-02-24T14:04:54.710Z,5.60
2019-02-24T14:07:22.054Z,6.97
2019-02-24T14:09:49.408Z,6.42
2019-02-24T14:12:16.670Z,6.45
2019-02-24T14:14:48.976Z,5.92
2019-02-24T14:17:13.560Z,6.80
2019-02-24T14:19:40.920Z,6.40
2019-02-24T14:22:09.821Z,5.70
2019-02-24T14:24:37.243Z,6.90
2019-02-24T14:27:04.726Z,6.22
2019-02-24T14:29:32.110Z,7.08
2019-02-24T14:31:59.467Z,5.40
2019-02-24T14:34:26.863Z,7.03
2019-02-24T14:36:54.256Z,6.72
2019-02-24T14:39:22.294Z,7.50
2019-02-24T14:41:49.779Z,5.40
2019-02-24T14:44:17.114Z,4.62
2019-02-24T14:46:44.477Z,5.97
2019-02-24T14:49:11.870Z,8.93
2019-02-24T14:51:39.241Z,6.20
2019-02-24T14:54:06.587Z,6.87
2019-02-24T14:56:33.977Z,5.83
2019-02-24T14:59:01.392Z,7.05
2019-02-24T15:01:28.870Z,5.78
2019-02-24T15:03:56.221Z,7.12
2019-02-24T15:06:23.650Z,7.40
2019-02-24T15:08:51.049Z,7.15
2019-02-24T15:11:18.473Z,6.95
2019-02-24T15:13:45.813Z,5.85
2019-02-24T15:16:13.242Z,6.87
2019-02-24T15:18:40.614Z,5.95
2019-02-24T15:21:08.064Z,8.85
2019-02-24T15:23:35.491Z,8.93
2019-02-24T15:26:03.693Z,5.78
2019-02-24T15:28:30.972Z,7.53
2019-02-24T15:30:59.483Z,5.22
2019-02-24T15:33:26.994Z,5.40
2019-02-24T15:35:54.414Z,8.00
2019-02-24T15:38:22.869Z,8.30
2019-02-24T15:40:50.306Z,6.95
2019-02-24T15:43:17.802Z,7.55
2019-02-24T15:45:45.143Z,6.85
2019-02-24T15:48:12.591Z,6.42
2019-02-24T15:50:39.942Z,7.20
2019-02-24T15:53:07.419Z,6.30
2019-02-24T15:55:34.839Z,6.15
2019-02-24T15:58:02.209Z,6.25
2019-02-24T16:00:29.652Z,5.87
2019-02-24T16:03:01.421Z,6.53
2019-02-24T16:05:28.886Z,5.17
2019-02-24T16:07:56.279Z,5.87
2019-02-24T16:10:23.692Z,5.50
2019-02-24T16:12:51.155Z,6.22
2019-02-24T16:15:18.475Z,8.20
2019-02-24T16:17:45.949Z,5.67
2019-02-24T16:20:18.890Z,5.28
2019-02-24T16:22:46.345Z,4.85
2019-02-24T16:25:13.783Z,7.55
2019-02-24T16:27:41.315Z,7.62
2019-02-24T16:30:09.824Z,5.75
2019-02-24T16:32:37.149Z,6.62
2019-02-24T16:35:05.013Z,6.85
2019-02-24T16:37:32.434Z,8.13
2019-02-24T16:39:59.873Z,5.47
2019-02-24T16:42:27.396Z,5.33
2019-02-24T16:44:54.759Z,7.30
2019-02-24T16:47:22.150Z,6.97
2019-02-24T16:49:49.636Z,6.67
2019-02-24T16:52:17.029Z,5.90
2019-02-24T16:54:52.531Z,7.75
2019-02-24T16:57:13.786Z,5.58
2019-02-24T16:59:41.191Z,6.60
2019-02-24T17:02:08.722Z,7.33
2019-02-24T17:04:36.179Z,6.10
2019-02-24T17:07:03.590Z,6.60
2019-02-24T17:09:30.961Z,8.33
2019-02-24T17:11:58.376Z,6.10
2019-02-24T17:14:25.867Z,5.95
2019-02-24T17:17:01.375Z,6.20
2019-02-24T17:19:22.754Z,6.40
2019-02-24T17:21:50.355Z,6.30
2019-02-24T17:24:17.807Z,7.25
2019-02-24T17:26:45.347Z,6.53
2019-02-24T17:29:12.777Z,6.97
2019-02-24T17:31:40.159Z,5.78
2019-02-24T17:34:07.629Z,11.12
2019-02-24T17:36:35.114Z,6.90
2019-02-24T17:39:03.997Z,6.72
2019-02-24T17:41:33.504Z,9.00
2019-02-24T17:44:00.915Z,8.00
2019-02-24T17:46:28.392Z,8.13
2019-02-24T17:48:55.818Z,7.28
2019-02-24T17:51:23.447Z,7.00
2019-02-24T17:53:50.806Z,9.78
2019-02-24T17:56:18.248Z,6.30
2019-02-24T17:58:45.834Z,8.75
2019-02-24T18:01:13.400Z,10.13
2019-02-24T18:03:40.953Z,9.60
2019-02-24T18:06:08.343Z,10.90
2019-02-24T18:08:35.784Z,9.78
2019-02-24T18:11:03.251Z,8.68
2019-02-24T18:13:30.628Z,9.20
2019-02-24T18:15:58.035Z,16.35
2019-02-24T18:18:25.355Z,9.18
2019-02-24T18:20:52.748Z,10.30
2019-02-24T18:23:20.317Z,31.23
2019-02-24T18:25:47.731Z,28.35
2019-02-24T18:28:15.239Z,20.20
2019-02-24T18:30:42.654Z,15.58
2019-02-24T18:33:10.045Z,10.48
2019-02-24T18:35:37.522Z,8.93
2019-02-24T18:38:04.950Z,10.28
2019-02-24T18:40:32.333Z,8.83
2019-02-24T18:43:00.872Z,9.88
2019-02-24T18:45:28.365Z,9.60
2019-02-24T18:47:55.867Z,8.60
2019-02-24T18:50:23.418Z,7.10
2019-02-24T18:52:54.722Z,7.85
2019-02-24T18:55:22.122Z,6.62
2019-02-24T18:57:51.030Z,8.15
2019-02-24T19:00:19.001Z,8.23
2019-02-24T19:02:47.615Z,6.92
2019-02-24T19:05:17.280Z,7.40
2019-02-24T19:07:45.435Z,7.25
2019-02-24T19:10:14.003Z,8.18
2019-02-24T19:12:41.460Z,8.10
2019-02-24T19:15:11.987Z,7.15
2019-02-24T19:17:39.555Z,8.65
2019-02-24T19:20:07.934Z,6.92
2019-02-24T19:22:35.566Z,10.48
2019-02-24T19:25:03.235Z,9.48
2019-02-24T19:27:31.363Z,7.80
2019-02-24T19:29:59.072Z,9.18
2019-02-24T19:32:26.604Z,7.58
2019-02-24T19:34:54.092Z,9.08
2019-02-24T19:37:21.587Z,7.90
2019-02-24T19:39:49.104Z,7.62
2019-02-24T19:42:16.486Z,7.92
2019-02-24T19:44:44.018Z,9.65
2019-02-24T19:47:12.217Z,8.05
2019-02-24T19:49:39.745Z,8.75
2019-02-24T19:52:07.116Z,15.93
2019-02-24T19:54:34.730Z,14.63
2019-02-24T19:57:02.200Z,12.23
2019-02-24T19:59:29.572Z,11.80
2019-02-24T20:01:57.031Z,7.25
2019-02-24T20:04:24.549Z,9.25
2019-02-24T20:06:53.209Z,6.28
2019-02-24T20:09:20.703Z,9.93
2019-02-24T20:11:48.199Z,9.75
2019-02-24T20:14:16.172Z,10.70
2019-02-24T20:16:45.366Z,9.70
2019-02-24T20:19:13.248Z,11.18
2019-02-24T20:21:40.779Z,10.48
2019-02-24T20:24:08.364Z,13.25
2019-02-24T20:26:35.706Z,9.73
2019-02-24T20:29:03.220Z,9.28
2019-02-24T20:31:30.819Z,9.80
2019-02-24T20:33:58.379Z,10.98
2019-02-24T20:36:26.420Z,10.58
2019-02-24T20:38:53.754Z,9.90
2019-02-24T20:41:21.160Z,8.95
2019-02-24T20:43:48.629Z,8.95
2019-02-24T20:46:16.086Z,10.23
2019-02-24T20:48:43.604Z,10.50
2019-02-24T20:51:11.013Z,9.95
2019-02-24T20:53:38.436Z,13.00
2019-02-24T20:56:05.774Z,8.43
2019-02-24T20:58:33.182Z,11.85
2019-02-24T21:01:00.596Z,10.70
2019-02-24T21:03:28.028Z,9.75
2019-02-24T21:05:55.401Z,13.13
2019-02-24T21:08:22.843Z,14.58
2019-02-24T21:10:50.271Z,14.50
2019-02-24T21:13:17.657Z,10.23
2019-02-24T21:15:45.049Z,12.50
2019-02-24T21:18:12.506Z,12.15
2019-02-24T21:20:39.998Z,9.68
2019-02-24T21:23:07.353Z,8.53
2019-02-24T21:25:34.816Z,9.08
2019-02-24T21:28:02.278Z,10.13
2019-02-24T21:30:31.709Z,9.58
2019-02-24T21:32:58.998Z,8.25
2019-02-24T21:35:26.415Z,10.72
2019-02-24T21:37:53.828Z,9.40
2019-02-24T21:40:23.361Z,9.60
2019-02-24T21:42:50.599Z,8.95
2019-02-24T21:45:18.403Z,8.58
2019-02-24T21:47:45.775Z,8.15
2019-02-24T21:50:14.707Z,10.08
2019-02-24T21:52:42.162Z,8.53
2019-02-24T21:55:09.654Z,8.63
2019-02-24T21:57:37.098Z,7.83
2019-02-24T22:00:07.416Z,8.40
2019-02-24T22:02:35.113Z,8.20
2019-02-24T22:05:02.879Z,10.18
2019-02-24T22:07:30.285Z,10.43
2019-02-24T22:09:57.786Z,12.70
2019-02-24T22:12:25.212Z,8.75
2019-02-24T22:14:52.603Z,9.28
2019-02-24T22:17:20.009Z,7.97
2019-02-24T22:19:47.473Z,9.38
2019-02-24T22:22:14.898Z,11.00
2019-02-24T22:24:42.201Z,10.82
2019-02-24T22:27:09.550Z,10.68
2019-02-24T22:29:36.922Z,9.55
2019-02-24T22:32:04.233Z,8.50
2019-02-24T22:34:31.691Z,9.20
2019-02-24T22:36:59.084Z,7.87
2019-02-24T22:39:26.487Z,8.98
2019-02-24T22:41:54.271Z,9.25
2019-02-24T22:44:21.624Z,10.45
2019-02-24T22:46:49.456Z,8.20
2019-02-24T22:49:16.798Z,8.28
2019-02-24T22:51:44.205Z,9.85
2019-02-24T22:54:11.637Z,9.05
2019-02-24T22:56:39.035Z,11.95
2019-02-24T22:59:06.474Z,10.55
2019-02-24T23:01:37.245Z,9.93
2019-02-24T23:04:10.991Z,10.20
2019-02-24T23:06:38.570Z,11.75
2019-02-24T23:09:10.226Z,10.78
2019-02-24T23:11:38.379Z,10.20
2019-02-24T23:14:05.740Z,11.30
2019-02-24T23:16:33.200Z,14.78
2019-02-24T23:19:00.599Z,12.30
2019-02-24T23:21:27.979Z,15.50
2019-02-24T23:23:55.330Z,12.98
2019-02-24T23:26:22.747Z,12.25
2019-02-24T23:28:50.255Z,12.07
2019-02-24T23:31:17.714Z,15.63
2019-02-24T23:33:45.080Z,10.28
2019-02-24T23:36:12.465Z,11.88
2019-02-24T23:38:39.886Z,11.90
2019-02-24T23:41:07.959Z,12.03
2019-02-24T23:43:35.334Z,12.30
2019-02-24T23:46:02.688Z,14.60
2019-02-24T23:48:30.027Z,16.25
2019-02-24T23:50:57.399Z,17.20
2019-02-24T23:53:24.783Z,17.65
2019-02-24T23:55:52.150Z,21.07
2019-02-24T23:58:19.618Z,17.27
